sensor_id;sensor_type;location;lat;lon;timestamp;pressure;altitude;pressure_sealevel;temperature;humidity
56420;BME280;42323;52.170;7.538;2022-09-09T00:01:47;100391.63;;;16.04;100.00
56420;BME280;42323;52.170;7.538;2022-09-09T00:04:36;100388.19;;;16.10;100.00
56420;BME280;42323;52.170;7.538;2022-09-09T00:07:21;100392.31;;;16.12;100.00
56420;BME280;42323;52.170;7.538;2022-09-09T00:16:00;100394.78;;;16.07;100.00
56420;BME280;42323;52.170;7.538;2022-09-09T00:21:11;100394.84;;;16.20;100.00
56420;BME280;42323;52.170;7.538;2022-09-09T00:23:44;100387.41;;;16.22;100.00
56420;BME280;42323;52.170;7.538;2022-09-09T00:26:33;100393.59;;;16.16;100.00
56420;BME280;42323;52.170;7.538;2022-09-09T00:31:39;100394.38;;;16.10;100.00
56420;BME280;42323;52.170;7.538;2022-09-09T00:34:12;100388.38;;;16.08;100.00
56420;BME280;42323;52.170;7.538;2022-09-09T00:36:41;100397.25;;;16.09;100.00
56420;BME280;42323;52.170;7.538;2022-09-09T00:39:15;100398.84;;;16.03;100.00
56420;BME280;42323;52.170;7.538;2022-09-09T00:44:31;100401.31;;;15.98;100.00
56420;BME280;42323;52.170;7.538;2022-09-09T00:50:13;100403.56;;;15.95;100.00
56420;BME280;42323;52.170;7.538;2022-09-09T00:52:46;100404.19;;;15.97;100.00
56420;BME280;42323;52.170;7.538;2022-09-09T00:55:39;100405.75;;;15.84;100.00
56420;BME280;42323;52.170;7.538;2022-09-09T00:58:09;100410.72;;;15.87;100.00
56420;BME280;42323;52.170;7.538;2022-09-09T01:00:57;100412.00;;;15.91;100.00
56420;BME280;42323;52.170;7.538;2022-09-09T01:03:52;100415.69;;;15.90;100.00
56420;BME280;42323;52.170;7.538;2022-09-09T01:06:38;100397.72;;;15.84;100.00
56420;BME280;42323;52.170;7.538;2022-09-09T01:12:33;100379.94;;;15.83;100.00
56420;BME280;42323;52.170;7.538;2022-09-09T01:15:09;100383.09;;;15.87;100.00
56420;BME280;42323;52.170;7.538;2022-09-09T01:18:06;100373.53;;;15.78;100.00
56420;BME280;42323;52.170;7.538;2022-09-09T01:21:04;100376.63;;;15.81;100.00
56420;BME280;42323;52.170;7.538;2022-09-09T01:26:34;100361.97;;;15.77;100.00
56420;BME280;42323;52.170;7.538;2022-09-09T01:29:01;100375.41;;;15.84;100.00
56420;BME280;42323;52.170;7.538;2022-09-09T01:31:32;100378.97;;;15.84;100.00
56420;BME280;42323;52.170;7.538;2022-09-09T01:34:02;100386.81;;;15.86;100.00
56420;BME280;42323;52.170;7.538;2022-09-09T01:39:07;100386.09;;;15.77;100.00
56420;BME280;42323;52.170;7.538;2022-09-09T01:41:34;100389.63;;;15.78;100.00
56420;BME280;42323;52.170;7.538;2022-09-09T01:44:01;100390.00;;;15.75;100.00
56420;BME280;42323;52.170;7.538;2022-09-09T01:46:29;100396.75;;;15.64;100.00
56420;BME280;42323;52.170;7.538;2022-09-09T01:48:57;100387.97;;;15.55;100.00
56420;BME280;42323;52.170;7.538;2022-09-09T01:51:25;100398.88;;;15.54;100.00
56420;BME280;42323;52.170;7.538;2022-09-09T01:53:52;100410.56;;;15.46;100.00
56420;BME280;42323;52.170;7.538;2022-09-09T01:59:01;100414.50;;;15.50;100.00
56420;BME280;42323;52.170;7.538;2022-09-09T02:06:56;100422.63;;;15.36;100.00
56420;BME280;42323;52.170;7.538;2022-09-09T02:09:26;100430.84;;;15.34;100.00
56420;BME280;42323;52.170;7.538;2022-09-09T02:12:19;100423.53;;;15.21;100.00
56420;BME280;42323;52.170;7.538;2022-09-09T02:14:50;100431.38;;;15.23;100.00
56420;BME280;42323;52.170;7.538;2022-09-09T02:17:27;100434.81;;;15.17;100.00
56420;BME280;42323;52.170;7.538;2022-09-09T02:20:21;100431.84;;;15.12;100.00
56420;BME280;42323;52.170;7.538;2022-09-09T02:22:49;100432.81;;;15.04;100.00
56420;BME280;42323;52.170;7.538;2022-09-09T02:25:18;100437.53;;;15.02;100.00
56420;BME280;42323;52.170;7.538;2022-09-09T02:27:47;100439.56;;;15.00;100.00
56420;BME280;42323;52.170;7.538;2022-09-09T02:30:18;100444.09;;;14.99;100.00
56420;BME280;42323;52.170;7.538;2022-09-09T02:32:48;100433.97;;;14.95;100.00
56420;BME280;42323;52.170;7.538;2022-09-09T02:35:21;100432.94;;;14.96;100.00
56420;BME280;42323;52.170;7.538;2022-09-09T02:37:52;100429.25;;;14.97;100.00
56420;BME280;42323;52.170;7.538;2022-09-09T02:40:20;100428.75;;;14.93;100.00
56420;BME280;42323;52.170;7.538;2022-09-09T02:42:48;100428.84;;;15.00;100.00
56420;BME280;42323;52.170;7.538;2022-09-09T02:45:18;100433.19;;;15.01;100.00
56420;BME280;42323;52.170;7.538;2022-09-09T02:48:14;100427.66;;;15.02;100.00
56420;BME280;42323;52.170;7.538;2022-09-09T02:51:15;100430.38;;;15.09;100.00
56420;BME280;42323;52.170;7.538;2022-09-09T02:53:59;100431.84;;;15.12;100.00
56420;BME280;42323;52.170;7.538;2022-09-09T02:56:32;100431.13;;;15.18;100.00
56420;BME280;42323;52.170;7.538;2022-09-09T02:59:05;100432.19;;;15.23;100.00
56420;BME280;42323;52.170;7.538;2022-09-09T03:01:31;100436.34;;;15.26;100.00
56420;BME280;42323;52.170;7.538;2022-09-09T03:03:59;100435.94;;;15.29;100.00
56420;BME280;42323;52.170;7.538;2022-09-09T03:06:25;100439.47;;;15.29;100.00
56420;BME280;42323;52.170;7.538;2022-09-09T03:08:53;100436.59;;;15.31;100.00
56420;BME280;42323;52.170;7.538;2022-09-09T03:11:20;100432.88;;;15.32;100.00
56420;BME280;42323;52.170;7.538;2022-09-09T03:13:47;100430.22;;;15.32;100.00
56420;BME280;42323;52.170;7.538;2022-09-09T03:16:15;100427.97;;;15.36;100.00
56420;BME280;42323;52.170;7.538;2022-09-09T03:18:42;100427.13;;;15.35;100.00
56420;BME280;42323;52.170;7.538;2022-09-09T03:21:09;100430.84;;;15.34;100.00
56420;BME280;42323;52.170;7.538;2022-09-09T03:23:35;100427.13;;;15.35;100.00
56420;BME280;42323;52.170;7.538;2022-09-09T03:26:02;100420.75;;;15.36;100.00
56420;BME280;42323;52.170;7.538;2022-09-09T03:28:29;100423.09;;;15.39;100.00
56420;BME280;42323;52.170;7.538;2022-09-09T03:31:02;100421.88;;;15.42;100.00
56420;BME280;42323;52.170;7.538;2022-09-09T03:33:30;100420.22;;;15.41;100.00
56420;BME280;42323;52.170;7.538;2022-09-09T03:35:57;100418.09;;;15.36;100.00
56420;BME280;42323;52.170;7.538;2022-09-09T03:38:24;100406.16;;;15.39;100.00
56420;BME280;42323;52.170;7.538;2022-09-09T03:40:52;100418.41;;;15.48;100.00
56420;BME280;42323;52.170;7.538;2022-09-09T03:43:25;100410.31;;;15.41;100.00
56420;BME280;42323;52.170;7.538;2022-09-09T03:45:53;100422.50;;;15.44;100.00
56420;BME280;42323;52.170;7.538;2022-09-09T03:48:20;100423.34;;;15.44;100.00
56420;BME280;42323;52.170;7.538;2022-09-09T03:50:52;100411.59;;;15.45;100.00
56420;BME280;42323;52.170;7.538;2022-09-09T03:53:21;100421.47;;;15.45;100.00
56420;BME280;42323;52.170;7.538;2022-09-09T03:55:51;100416.31;;;15.43;100.00
56420;BME280;42323;52.170;7.538;2022-09-09T03:58:22;100401.00;;;15.37;100.00
56420;BME280;42323;52.170;7.538;2022-09-09T04:00:58;100404.69;;;15.36;100.00
56420;BME280;42323;52.170;7.538;2022-09-09T04:03:26;100409.81;;;15.31;100.00
56420;BME280;42323;52.170;7.538;2022-09-09T04:05:55;100407.91;;;15.25;100.00
56420;BME280;42323;52.170;7.538;2022-09-09T04:08:22;100409.88;;;15.16;100.00
56420;BME280;42323;52.170;7.538;2022-09-09T04:10:52;100407.38;;;15.15;100.00
56420;BME280;42323;52.170;7.538;2022-09-09T04:13:19;100401.75;;;15.10;100.00
56420;BME280;42323;52.170;7.538;2022-09-09T04:15:54;100400.09;;;15.09;100.00
56420;BME280;42323;52.170;7.538;2022-09-09T04:18:21;100403.81;;;15.08;100.00
56420;BME280;42323;52.170;7.538;2022-09-09T04:20:49;100410.03;;;15.15;100.00
56420;BME280;42323;52.170;7.538;2022-09-09T04:23:17;100414.84;;;15.19;100.00
56420;BME280;42323;52.170;7.538;2022-09-09T04:25:48;100408.84;;;15.17;100.00
56420;BME280;42323;52.170;7.538;2022-09-09T04:28:17;100416.50;;;15.20;100.00
56420;BME280;42323;52.170;7.538;2022-09-09T04:30:45;100414.66;;;15.21;100.00
56420;BME280;42323;52.170;7.538;2022-09-09T04:33:13;100409.31;;;15.21;100.00
56420;BME280;42323;52.170;7.538;2022-09-09T04:35:48;100414.66;;;15.21;100.00
56420;BME280;42323;52.170;7.538;2022-09-09T04:38:17;100422.16;;;15.11;100.00
56420;BME280;42323;52.170;7.538;2022-09-09T04:40:46;100417.06;;;15.16;100.00
56420;BME280;42323;52.170;7.538;2022-09-09T04:43:13;100421.13;;;15.12;100.00
56420;BME280;42323;52.170;7.538;2022-09-09T04:45:44;100428.97;;;15.13;100.00
56420;BME280;42323;52.170;7.538;2022-09-09T04:48:13;100424.78;;;15.04;100.00
56420;BME280;42323;52.170;7.538;2022-09-09T04:50:40;100428.91;;;15.07;100.00
56420;BME280;42323;52.170;7.538;2022-09-09T04:53:07;100434.66;;;15.04;100.00
56420;BME280;42323;52.170;7.538;2022-09-09T04:55:35;100427.19;;;14.99;100.00
56420;BME280;42323;52.170;7.538;2022-09-09T04:58:07;100430.97;;;15.05;100.00
56420;BME280;42323;52.170;7.538;2022-09-09T05:00:35;100438.34;;;15.02;100.00
56420;BME280;42323;52.170;7.538;2022-09-09T05:03:06;100437.16;;;15.05;100.00
56420;BME280;42323;52.170;7.538;2022-09-09T05:05:36;100433.00;;;15.02;100.00
56420;BME280;42323;52.170;7.538;2022-09-09T05:08:05;100434.59;;;14.97;100.00
56420;BME280;42323;52.170;7.538;2022-09-09T05:10:33;100442.88;;;15.02;100.00
56420;BME280;42323;52.170;7.538;2022-09-09T05:13:00;100435.69;;;15.02;100.00
56420;BME280;42323;52.170;7.538;2022-09-09T05:15:26;100433.00;;;15.02;100.00
56420;BME280;42323;52.170;7.538;2022-09-09T05:18:00;100434.28;;;15.07;100.00
56420;BME280;42323;52.170;7.538;2022-09-09T05:20:29;100422.28;;;15.02;100.00
56420;BME280;42323;52.170;7.538;2022-09-09T05:22:56;100436.19;;;15.13;100.00
56420;BME280;42323;52.170;7.538;2022-09-09T05:25:24;100425.66;;;15.11;100.00
56420;BME280;42323;52.170;7.538;2022-09-09T05:27:53;100429.47;;;15.17;100.00
56420;BME280;42323;52.170;7.538;2022-09-09T05:30:21;100428.25;;;15.19;100.00
56420;BME280;42323;52.170;7.538;2022-09-09T05:32:49;100428.16;;;15.13;100.00
56420;BME280;42323;52.170;7.538;2022-09-09T05:35:16;100431.13;;;15.18;100.00
56420;BME280;42323;52.170;7.538;2022-09-09T05:37:45;100425.81;;;15.24;100.00
56420;BME280;42323;52.170;7.538;2022-09-09T05:40:12;100428.94;;;15.28;100.00
56420;BME280;42323;52.170;7.538;2022-09-09T05:42:40;100424.84;;;15.32;100.00
56420;BME280;42323;52.170;7.538;2022-09-09T05:45:08;100429.56;;;15.30;100.00
56420;BME280;42323;52.170;7.538;2022-09-09T05:47:35;100430.09;;;15.40;100.00
56420;BME280;42323;52.170;7.538;2022-09-09T05:50:04;100435.81;;;15.37;100.00
56420;BME280;42323;52.170;7.538;2022-09-09T05:52:31;100430.97;;;15.47;100.00
56420;BME280;42323;52.170;7.538;2022-09-09T05:54:58;100426.66;;;15.46;100.00
56420;BME280;42323;52.170;7.538;2022-09-09T05:57:26;100429.75;;;15.50;100.00
56420;BME280;42323;52.170;7.538;2022-09-09T05:59:53;100426.25;;;15.49;100.00
56420;BME280;42323;52.170;7.538;2022-09-09T06:02:20;100433.28;;;15.50;100.00
56420;BME280;42323;52.170;7.538;2022-09-09T06:04:47;100432.88;;;15.53;100.00
56420;BME280;42323;52.170;7.538;2022-09-09T06:07:14;100424.00;;;15.53;100.00
56420;BME280;42323;52.170;7.538;2022-09-09T06:09:41;100428.16;;;15.55;100.00
56420;BME280;42323;52.170;7.538;2022-09-09T06:12:08;100421.41;;;15.59;100.00
56420;BME280;42323;52.170;7.538;2022-09-09T06:14:35;100421.06;;;15.63;100.00
56420;BME280;42323;52.170;7.538;2022-09-09T06:17:02;100419.22;;;15.63;100.00
56420;BME280;42323;52.170;7.538;2022-09-09T06:19:29;100432.25;;;15.73;100.00
56420;BME280;42323;52.170;7.538;2022-09-09T06:21:57;100419.66;;;15.67;100.00
56420;BME280;42323;52.170;7.538;2022-09-09T06:24:23;100430.06;;;15.83;100.00
56420;BME280;42323;52.170;7.538;2022-09-09T06:26:50;100423.69;;;15.84;100.00
56420;BME280;42323;52.170;7.538;2022-09-09T06:29:17;100411.94;;;15.85;100.00
56420;BME280;42323;52.170;7.538;2022-09-09T06:31:43;100421.69;;;15.92;100.00
56420;BME280;42323;52.170;7.538;2022-09-09T06:34:11;100423.00;;;16.03;100.00
56420;BME280;42323;52.170;7.538;2022-09-09T06:36:38;100418.13;;;16.13;100.00
56420;BME280;42323;52.170;7.538;2022-09-09T06:39:06;100418.34;;;16.18;100.00
56420;BME280;42323;52.170;7.538;2022-09-09T06:41:39;100415.91;;;16.23;100.00
56420;BME280;42323;52.170;7.538;2022-09-09T06:44:07;100413.84;;;16.26;100.00
56420;BME280;42323;52.170;7.538;2022-09-09T06:46:34;100411.25;;;16.39;100.00
56420;BME280;42323;52.170;7.538;2022-09-09T06:49:02;100422.63;;;16.47;100.00
56420;BME280;42323;52.170;7.538;2022-09-09T06:51:30;100399.47;;;16.33;100.00
56420;BME280;42323;52.170;7.538;2022-09-09T06:53:59;100414.44;;;16.62;100.00
56420;BME280;42323;52.170;7.538;2022-09-09T06:56:34;100401.78;;;16.49;100.00
56420;BME280;42323;52.170;7.538;2022-09-09T06:59:03;100418.84;;;16.70;100.00
56420;BME280;42323;52.170;7.538;2022-09-09T07:01:33;100419.88;;;16.69;100.00
56420;BME280;42323;52.170;7.538;2022-09-09T07:04:00;100415.34;;;16.69;100.00
56420;BME280;42323;52.170;7.538;2022-09-09T07:06:30;100411.91;;;16.89;100.00
56420;BME280;42323;52.170;7.538;2022-09-09T07:08:59;100417.91;;;16.97;100.00
56420;BME280;42323;52.170;7.538;2022-09-09T07:11:28;100410.69;;;16.98;100.00
56420;BME280;42323;52.170;7.538;2022-09-09T07:13:57;100417.88;;;16.91;100.00
56420;BME280;42323;52.170;7.538;2022-09-09T07:16:24;100426.16;;;16.96;100.00
56420;BME280;42323;52.170;7.538;2022-09-09T07:18:52;100425.31;;;16.89;100.00
56420;BME280;42323;52.170;7.538;2022-09-09T07:21:26;100431.72;;;16.81;100.00
56420;BME280;42323;52.170;7.538;2022-09-09T07:23:53;100436.03;;;16.82;100.00
56420;BME280;42323;52.170;7.538;2022-09-09T07:26:23;100444.31;;;16.80;100.00
56420;BME280;42323;52.170;7.538;2022-09-09T07:28:50;100435.56;;;16.72;100.00
56420;BME280;42323;52.170;7.538;2022-09-09T07:31:19;100440.59;;;16.81;100.00
56420;BME280;42323;52.170;7.538;2022-09-09T07:33:47;100442.47;;;16.88;100.00
56420;BME280;42323;52.170;7.538;2022-09-09T07:36:23;100448.06;;;16.93;100.00
56420;BME280;42323;52.170;7.538;2022-09-09T07:38:55;100435.25;;;16.95;100.00
56420;BME280;42323;52.170;7.538;2022-09-09T07:41:29;100424.50;;;16.95;100.00
56420;BME280;42323;52.170;7.538;2022-09-09T07:43:56;100435.25;;;16.95;100.00
56420;BME280;42323;52.170;7.538;2022-09-09T07:46:25;100441.09;;;17.05;100.00
56420;BME280;42323;52.170;7.538;2022-09-09T07:48:54;100435.72;;;17.05;100.00
56420;BME280;42323;52.170;7.538;2022-09-09T07:51:27;100439.22;;;17.05;100.00
56420;BME280;42323;52.170;7.538;2022-09-09T07:54:00;100428.31;;;17.20;100.00
56420;BME280;42323;52.170;7.538;2022-09-09T07:56:29;100431.03;;;17.47;100.00
56420;BME280;42323;52.170;7.538;2022-09-09T07:58:59;100421.72;;;17.62;100.00
56420;BME280;42323;52.170;7.538;2022-09-09T08:01:34;100418.25;;;17.82;100.00
56420;BME280;42323;52.170;7.538;2022-09-09T08:04:06;100427.34;;;17.87;100.00
56420;BME280;42323;52.170;7.538;2022-09-09T08:06:37;100422.59;;;17.96;100.00
56420;BME280;42323;52.170;7.538;2022-09-09T08:09:06;100419.03;;;18.09;100.00
56420;BME280;42323;52.170;7.538;2022-09-09T08:11:33;100416.34;;;18.09;100.00
56420;BME280;42323;52.170;7.538;2022-09-09T08:14:08;100413.44;;;18.17;100.00
56420;BME280;42323;52.170;7.538;2022-09-09T08:16:38;100409.44;;;18.32;100.00
56420;BME280;42323;52.170;7.538;2022-09-09T08:19:06;100414.59;;;18.47;100.00
56420;BME280;42323;52.170;7.538;2022-09-09T08:21:35;100399.63;;;18.71;100.00
56420;BME280;42323;52.170;7.538;2022-09-09T08:24:03;100410.34;;;18.78;100.00
56420;BME280;42323;52.170;7.538;2022-09-09T08:26:35;100397.66;;;18.91;100.00
56420;BME280;42323;52.170;7.538;2022-09-09T08:29:06;100406.72;;;19.04;100.00
56420;BME280;42323;52.170;7.538;2022-09-09T08:31:35;100404.88;;;18.97;100.00
56420;BME280;42323;52.170;7.538;2022-09-09T08:34:04;100413.88;;;18.85;100.00
56420;BME280;42323;52.170;7.538;2022-09-09T08:36:33;100404.19;;;18.71;100.00
56420;BME280;42323;52.170;7.538;2022-09-09T08:39:01;100411.22;;;18.72;100.00
56420;BME280;42323;52.170;7.538;2022-09-09T08:53:11;100404.91;;;19.22;100.00
56420;BME280;42323;52.170;7.538;2022-09-09T08:55:55;100406.84;;;19.47;100.00
56420;BME280;42323;52.170;7.538;2022-09-09T08:58:30;100398.00;;;19.65;100.00
56420;BME280;42323;52.170;7.538;2022-09-09T09:12:16;100398.31;;;19.50;100.00
56420;BME280;42323;52.170;7.538;2022-09-09T09:14:46;100402.06;;;19.49;100.00
56420;BME280;42323;52.170;7.538;2022-09-09T09:17:19;100399.72;;;19.59;100.00
56420;BME280;42323;52.170;7.538;2022-09-09T09:19:48;100398.56;;;19.73;100.00
56420;BME280;42323;52.170;7.538;2022-09-09T09:22:19;100404.56;;;19.75;100.00
56420;BME280;42323;52.170;7.538;2022-09-09T09:27:44;100406.44;;;19.43;100.00
56420;BME280;42323;52.170;7.538;2022-09-09T09:30:17;100401.53;;;19.34;100.00
56420;BME280;42323;52.170;7.538;2022-09-09T09:32:58;100405.28;;;19.33;100.00
56420;BME280;42323;52.170;7.538;2022-09-09T09:35:26;100398.69;;;19.28;100.00
56420;BME280;42323;52.170;7.538;2022-09-09T09:37:53;100393.94;;;19.55;100.00
56420;BME280;42323;52.170;7.538;2022-09-09T09:40:51;100390.22;;;20.00;100.00
56420;BME280;42323;52.170;7.538;2022-09-09T09:45:54;100387.66;;;20.05;100.00
56420;BME280;42323;52.170;7.538;2022-09-09T09:48:41;100394.59;;;20.56;100.00
56420;BME280;42323;52.170;7.538;2022-09-09T09:51:10;100396.47;;;20.55;100.00
56420;BME280;42323;52.170;7.538;2022-09-09T09:53:41;100383.31;;;20.77;100.00
56420;BME280;42323;52.170;7.538;2022-09-09T09:56:11;100381.16;;;20.97;100.00
56420;BME280;42323;52.170;7.538;2022-09-09T10:01:30;100389.66;;;20.53;100.00
56420;BME280;42323;52.170;7.538;2022-09-09T10:04:22;100374.66;;;20.20;100.00
56420;BME280;42323;52.170;7.538;2022-09-09T10:06:50;100384.06;;;20.11;100.00
56420;BME280;42323;52.170;7.538;2022-09-09T10:12:15;100379.31;;;21.28;100.00
56420;BME280;42323;52.170;7.538;2022-09-09T10:17:53;100370.72;;;23.05;100.00
56420;BME280;42323;52.170;7.538;2022-09-09T10:20:49;100374.16;;;23.45;100.00
56420;BME280;42323;52.170;7.538;2022-09-09T10:29:26;100369.88;;;23.49;98.79
56420;BME280;42323;52.170;7.538;2022-09-09T10:52:40;100374.66;;;23.76;96.81
56420;BME280;42323;52.170;7.538;2022-09-09T10:55:10;100362.53;;;24.00;93.84
56420;BME280;42323;52.170;7.538;2022-09-09T10:57:50;100356.34;;;24.92;89.36
56420;BME280;42323;52.170;7.538;2022-09-09T11:02:56;100359.44;;;24.52;91.91
56420;BME280;42323;52.170;7.538;2022-09-09T11:08:01;100369.56;;;26.17;73.50
56420;BME280;42323;52.170;7.538;2022-09-09T11:10:55;100364.97;;;25.75;70.81
56420;BME280;42323;52.170;7.538;2022-09-09T11:16:04;100362.16;;;26.65;68.39
56420;BME280;42323;52.170;7.538;2022-09-09T11:18:37;100346.47;;;27.28;66.80
56420;BME280;42323;52.170;7.538;2022-09-09T11:21:11;100350.06;;;25.83;70.87
56420;BME280;42323;52.170;7.538;2022-09-09T11:23:43;100353.88;;;26.34;70.69
56420;BME280;42323;52.170;7.538;2022-09-09T11:26:21;100367.69;;;25.11;75.63
56420;BME280;42323;52.170;7.538;2022-09-09T11:31:52;100354.16;;;24.24;85.27
56420;BME280;42323;52.170;7.538;2022-09-09T11:37:17;100355.56;;;23.88;88.13
56420;BME280;42323;52.170;7.538;2022-09-09T11:40:07;100359.69;;;24.51;80.73
56420;BME280;42323;52.170;7.538;2022-09-09T11:42:36;100363.16;;;25.54;74.94
56420;BME280;42323;52.170;7.538;2022-09-09T11:45:29;100366.03;;;24.61;76.79
56420;BME280;42323;52.170;7.538;2022-09-09T11:47:58;100364.16;;;24.40;80.35
56420;BME280;42323;52.170;7.538;2022-09-09T11:53:24;100366.28;;;23.77;82.53
56420;BME280;42323;52.170;7.538;2022-09-09T11:56:09;100358.78;;;24.67;80.54
56420;BME280;42323;52.170;7.538;2022-09-09T11:58:40;100350.56;;;24.62;76.88
56420;BME280;42323;52.170;7.538;2022-09-09T12:01:43;100355.69;;;25.71;74.84
56420;BME280;42323;52.170;7.538;2022-09-09T12:06:53;100354.78;;;26.60;67.00
56420;BME280;42323;52.170;7.538;2022-09-09T12:09:38;100358.75;;;27.35;63.33
56420;BME280;42323;52.170;7.538;2022-09-09T12:17:18;100349.19;;;27.07;65.39
56420;BME280;42323;52.170;7.538;2022-09-09T12:19:46;100338.75;;;26.79;62.79
56420;BME280;42323;52.170;7.538;2022-09-09T12:22:26;100339.06;;;27.59;61.11
56420;BME280;42323;52.170;7.538;2022-09-09T12:30:17;100339.28;;;25.66;65.35
56420;BME280;42323;52.170;7.538;2022-09-09T12:32:44;100342.22;;;24.68;70.46
56420;BME280;42323;52.170;7.538;2022-09-09T12:35:31;100346.50;;;23.48;76.09
56420;BME280;42323;52.170;7.538;2022-09-09T12:38:00;100341.06;;;22.98;78.35
56420;BME280;42323;52.170;7.538;2022-09-09T12:40:33;100345.66;;;22.69;83.13
56420;BME280;42323;52.170;7.538;2022-09-09T12:43:15;100351.25;;;22.51;85.93
56420;BME280;42323;52.170;7.538;2022-09-09T12:45:43;100355.44;;;22.70;87.12
56420;BME280;42323;52.170;7.538;2022-09-09T12:48:12;100357.84;;;22.55;89.36
56420;BME280;42323;52.170;7.538;2022-09-09T12:50:48;100353.88;;;22.74;88.75
56420;BME280;42323;52.170;7.538;2022-09-09T12:53:22;100343.50;;;22.83;88.39
56420;BME280;42323;52.170;7.538;2022-09-09T12:55:57;100347.84;;;23.46;85.50
56420;BME280;42323;52.170;7.538;2022-09-09T12:58:25;100344.88;;;23.14;85.88
56420;BME280;42323;52.170;7.538;2022-09-09T13:00:55;100348.31;;;23.09;87.56
56420;BME280;42323;52.170;7.538;2022-09-09T13:03:23;100351.88;;;22.81;86.83
56420;BME280;42323;52.170;7.538;2022-09-09T13:05:52;100348.63;;;22.56;86.12
56420;BME280;42323;52.170;7.538;2022-09-09T13:08:20;100340.09;;;22.36;87.06
56420;BME280;42323;52.170;7.538;2022-09-09T13:10:56;100343.19;;;22.27;90.92
56420;BME280;42323;52.170;7.538;2022-09-09T13:13:34;100343.81;;;22.06;91.79
56420;BME280;42323;52.170;7.538;2022-09-09T13:16:03;100347.44;;;22.23;92.63
56420;BME280;42323;52.170;7.538;2022-09-09T13:18:35;100337.16;;;22.37;90.85
56420;BME280;42323;52.170;7.538;2022-09-09T13:21:04;100335.97;;;22.45;89.80
56420;BME280;42323;52.170;7.538;2022-09-09T13:23:36;100325.31;;;23.29;86.31
56420;BME280;42323;52.170;7.538;2022-09-09T13:26:06;100321.03;;;23.16;86.71
56420;BME280;42323;52.170;7.538;2022-09-09T13:28:47;100323.94;;;23.60;84.33
56420;BME280;42323;52.170;7.538;2022-09-09T13:31:28;100308.22;;;24.22;84.93
56420;BME280;42323;52.170;7.538;2022-09-09T13:33:55;100310.59;;;24.62;79.22
56420;BME280;42323;52.170;7.538;2022-09-09T13:36:32;100307.56;;;24.86;75.48
56420;BME280;42323;52.170;7.538;2022-09-09T13:39:00;100311.25;;;24.69;74.87
56420;BME280;42323;52.170;7.538;2022-09-09T13:41:36;100309.44;;;24.31;74.60
56420;BME280;42323;52.170;7.538;2022-09-09T13:44:21;100309.91;;;23.85;78.01
56420;BME280;42323;52.170;7.538;2022-09-09T13:47:01;100304.41;;;22.96;82.30
56420;BME280;42323;52.170;7.538;2022-09-09T13:49:34;100305.34;;;22.73;86.19
56420;BME280;42323;52.170;7.538;2022-09-09T13:52:09;100330.06;;;22.48;90.76
56420;BME280;42323;52.170;7.538;2022-09-09T13:54:37;100329.22;;;22.07;97.18
56420;BME280;42323;52.170;7.538;2022-09-09T13:57:04;100347.59;;;21.82;100.00
56420;BME280;42323;52.170;7.538;2022-09-09T13:59:31;100352.88;;;21.53;100.00
56420;BME280;42323;52.170;7.538;2022-09-09T14:02:18;100345.31;;;21.32;100.00
56420;BME280;42323;52.170;7.538;2022-09-09T14:04:45;100362.66;;;21.54;100.00
56420;BME280;42323;52.170;7.538;2022-09-09T14:07:15;100366.31;;;21.18;100.00
56420;BME280;42323;52.170;7.538;2022-09-09T14:09:42;100358.03;;;20.35;100.00
56420;BME280;42323;52.170;7.538;2022-09-09T14:12:12;100362.63;;;20.34;100.00
56420;BME280;42323;52.170;7.538;2022-09-09T14:14:39;100354.97;;;20.13;100.00
56420;BME280;42323;52.170;7.538;2022-09-09T14:17:06;100353.13;;;19.95;100.00
56420;BME280;42323;52.170;7.538;2022-09-09T14:19:33;100355.84;;;19.88;100.00
56420;BME280;42323;52.170;7.538;2022-09-09T14:22:00;100374.88;;;19.75;100.00
56420;BME280;42323;52.170;7.538;2022-09-09T14:24:30;100362.78;;;19.60;100.00
56420;BME280;42323;52.170;7.538;2022-09-09T14:26:57;100387.44;;;19.63;100.00
56420;BME280;42323;52.170;7.538;2022-09-09T14:29:24;100381.09;;;19.51;100.00
56420;BME280;42323;52.170;7.538;2022-09-09T14:31:53;100413.09;;;19.09;100.00
56420;BME280;42323;52.170;7.538;2022-09-09T14:34:19;100453.16;;;18.28;100.00
56420;BME280;42323;52.170;7.538;2022-09-09T14:36:46;100476.59;;;17.68;100.00
56420;BME280;42323;52.170;7.538;2022-09-09T14:39:13;100482.69;;;17.35;100.00
56420;BME280;42323;52.170;7.538;2022-09-09T14:41:40;100483.66;;;17.14;100.00
56420;BME280;42323;52.170;7.538;2022-09-09T14:44:07;100484.88;;;16.99;100.00
56420;BME280;42323;52.170;7.538;2022-09-09T14:46:35;100487.78;;;17.04;100.00
56420;BME280;42323;52.170;7.538;2022-09-09T14:49:01;100494.00;;;17.11;100.00
56420;BME280;42323;52.170;7.538;2022-09-09T14:51:28;100481.19;;;17.13;100.00
56420;BME280;42323;52.170;7.538;2022-09-09T14:53:57;100481.22;;;17.26;100.00
56420;BME280;42323;52.170;7.538;2022-09-09T14:56:28;100474.81;;;17.27;100.00
56420;BME280;42323;52.170;7.538;2022-09-09T14:58:58;100475.91;;;17.46;100.00
56420;BME280;42323;52.170;7.538;2022-09-09T15:01:28;100475.34;;;17.70;100.00
56420;BME280;42323;52.170;7.538;2022-09-09T15:06:26;100458.59;;;17.88;100.00
56420;BME280;42323;52.170;7.538;2022-09-09T15:08:55;100462.50;;;18.19;100.00
56420;BME280;42323;52.170;7.538;2022-09-09T15:11:26;100456.03;;;18.40;100.00
56420;BME280;42323;52.170;7.538;2022-09-09T15:13:54;100441.69;;;18.59;100.00
56420;BME280;42323;52.170;7.538;2022-09-09T15:16:26;100442.09;;;18.69;100.00